Time;durP1;ratioP1;P1;durP2;ratioP2;P2;SDS_P1;SDS_P2;PMS_P1;PMS_P2;Temp;Humidity;BMP_temperature;BMP_pressure;BME280_temperature;BME280_humidity;BME280_pressure;Samples;Min_cycle;Max_cycle;Signal;HPM_P1;HPM_P2
2021/12/24 00:01:54;;;;;;;112.03;52.83;;;7.60;99.90;;;;;;4992845;28;20026;-89
2021/12/24 00:04:21;;;;;;;119.40;54.88;;;7.70;99.90;;;;;;4995941;28;20026;-89
2021/12/24 00:06:48;;;;;;;112.97;53.10;;;7.70;99.90;;;;;;4990154;28;20038;-89
2021/12/24 00:09:21;;;;;;;110.80;51.05;;;7.70;99.90;;;;;;4993087;28;20129;-89
2021/12/24 00:11:47;;;;;;;;;;;7.70;99.90;;;;;;4994003;28;20033;-89
2021/12/24 00:14:13;;;;;;;99.88;48.22;;;7.70;99.90;;;;;;4991937;28;19955;-88
2021/12/24 00:16:43;;;;;;;104.95;49.55;;;7.70;99.90;;;;;;4989451;28;20162;-88
2021/12/24 00:19:18;;;;;;;99.35;48.95;;;7.70;99.90;;;;;;4984858;28;20022;-89
2021/12/24 00:35:34;;;;;;;98.63;48.25;;;7.90;99.90;;;;;;4991611;28;20034;-88
2021/12/24 00:38:06;;;;;;;118.45;50.47;;;7.90;99.90;;;;;;4995495;28;20054;-89
2021/12/24 00:40:38;;;;;;;99.55;48.60;;;7.90;99.90;;;;;;4989514;28;20030;-89
2021/12/24 00:43:04;;;;;;;106.75;49.25;;;7.90;99.90;;;;;;4994050;28;20040;-88
2021/12/24 00:45:39;;;;;;;111.85;50.58;;;8.00;99.90;;;;;;4993785;28;20041;-89
2021/12/24 00:48:06;;;;;;;104.43;49.85;;;8.00;99.90;;;;;;4998906;28;20652;-89
2021/12/24 00:50:48;;;;;;;98.50;47.67;;;8.00;99.90;;;;;;4987243;28;20027;-89
2021/12/24 00:56:03;;;;;;;100.82;46.28;;;8.00;99.90;;;;;;4992230;28;20023;-88
2021/12/24 00:58:28;;;;;;;96.90;47.90;;;8.00;99.90;;;;;;4992906;28;20034;-90
2021/12/24 01:00:54;;;;;;;95.05;45.78;;;8.00;99.90;;;;;;5005355;28;20033;-90
2021/12/24 01:03:20;;;;;;;91.63;46.28;;;8.10;99.90;;;;;;4992857;28;20061;-89
2021/12/24 01:05:45;;;;;;;87.97;43.50;;;8.10;99.90;;;;;;4990302;28;20046;-89
2021/12/24 01:08:13;;;;;;;94.25;45.88;;;8.10;99.90;;;;;;4985039;28;20034;-89
2021/12/24 01:10:43;;;;;;;91.80;45.70;;;8.10;99.90;;;;;;4995553;28;20033;-89
2021/12/24 01:13:09;;;;;;;85.10;43.95;;;8.20;99.90;;;;;;4986506;28;20053;-88
2021/12/24 01:15:38;;;;;;;82.70;43.60;;;8.20;99.90;;;;;;4994885;28;20034;-89
2021/12/24 01:18:13;;;;;;;83.40;45.08;;;8.20;99.90;;;;;;4990767;28;20518;-89
2021/12/24 01:20:52;;;;;;;80.97;40.33;;;8.20;99.90;;;;;;4999280;28;20031;-89
2021/12/24 01:23:41;;;;;;;83.55;41.65;;;8.30;99.90;;;;;;4996455;28;20022;-89
2021/12/24 01:26:11;;;;;;;80.00;41.63;;;8.30;99.90;;;;;;4981744;28;20034;-88
2021/12/24 01:29:08;;;;;;;81.88;43.05;;;8.40;99.90;;;;;;4991027;28;20034;-89
2021/12/24 01:44:58;;;;;;;63.53;34.83;;;8.60;99.90;;;;;;4996350;28;20046;-90
2021/12/24 01:47:24;;;;;;;61.13;33.58;;;8.60;99.90;;;;;;4993968;28;20018;-89
2021/12/24 01:49:50;;;;;;;67.22;34.65;;;8.70;99.90;;;;;;4984261;28;20043;-90
2021/12/24 01:52:16;;;;;;;60.50;32.10;;;8.70;99.90;;;;;;4990556;28;20096;-90
2021/12/24 01:54:43;;;;;;;57.85;32.58;;;8.70;99.90;;;;;;4991811;28;20479;-89
2021/12/24 01:57:10;;;;;;;64.40;34.05;;;8.80;99.90;;;;;;4991014;28;20125;-89
2021/12/24 01:59:36;;;;;;;61.47;33.38;;;8.90;99.90;;;;;;4996198;28;20058;-88
2021/12/24 02:02:01;;;;;;;57.83;30.23;;;8.80;99.90;;;;;;4994760;28;20430;-89
2021/12/24 02:04:28;;;;;;;65.85;33.20;;;8.90;99.90;;;;;;4982592;28;20035;-90
2021/12/24 02:06:54;;;;;;;62.10;32.03;;;8.90;99.90;;;;;;4990206;28;20033;-90
2021/12/24 02:09:19;;;;;;;59.30;31.60;;;8.90;99.90;;;;;;4985310;28;20117;-90
2021/12/24 02:11:45;;;;;;;69.13;33.53;;;8.90;99.90;;;;;;4995927;28;20038;-89
2021/12/24 02:14:19;;;;;;;64.35;33.20;;;8.90;99.90;;;;;;4992100;28;20481;-90
2021/12/24 02:30:40;;;;;;;88.95;39.75;;;9.00;99.90;;;;;;4995108;28;20045;-89
2021/12/24 02:33:06;;;;;;;92.15;39.15;;;9.00;99.90;;;;;;4987812;28;20475;-89
2021/12/24 02:35:32;;;;;;;77.95;37.45;;;9.00;99.90;;;;;;4990525;28;20038;-88
2021/12/24 02:38:00;;;;;;;99.82;41.55;;;9.00;99.90;;;;;;4989760;28;20034;-89
2021/12/24 02:40:26;;;;;;;90.50;40.05;;;9.10;99.90;;;;;;4993422;28;20117;-88
2021/12/24 02:42:54;;;;;;;85.68;37.50;;;9.10;99.90;;;;;;4997766;28;20057;-88
2021/12/24 02:45:21;;;;;;;92.97;43.22;;;9.20;99.90;;;;;;4997026;28;20030;-89
2021/12/24 02:55:58;;;;;;;93.03;41.78;;;9.20;99.90;;;;;;4992217;28;20029;-88
2021/12/24 02:58:24;;;;;;;95.50;42.92;;;9.20;99.90;;;;;;4992743;28;20129;-89
2021/12/24 03:00:50;;;;;;;90.63;41.75;;;9.20;99.90;;;;;;4994283;28;20027;-88
2021/12/24 03:03:16;;;;;;;101.03;46.78;;;9.30;99.90;;;;;;5000567;28;20034;-88
2021/12/24 03:05:41;;;;;;;89.10;44.00;;;9.30;99.90;;;;;;4987988;28;20050;-89
2021/12/24 03:08:07;;;;;;;88.63;40.00;;;9.30;99.90;;;;;;4991849;28;20038;-88
2021/12/24 03:10:35;;;;;;;96.53;43.70;;;9.30;99.90;;;;;;5005485;28;20033;-88
2021/12/24 03:13:00;;;;;;;101.80;44.67;;;9.30;99.90;;;;;;4995493;28;20118;-88
2021/12/24 03:15:26;;;;;;;91.38;41.95;;;9.30;99.90;;;;;;4985122;28;20065;-88
2021/12/24 03:17:56;;;;;;;91.72;41.75;;;9.30;99.90;;;;;;4991039;28;20184;-89
2021/12/24 03:20:23;;;;;;;84.22;38.22;;;9.30;99.90;;;;;;4993303;28;20149;-88
2021/12/24 03:25:14;;;;;;;92.82;42.33;;;9.30;99.90;;;;;;4979555;28;20494;-88
2021/12/24 03:27:40;;;;;;;84.78;39.15;;;9.30;99.90;;;;;;4993458;28;20031;-88
2021/12/24 03:30:07;;;;;;;81.30;38.88;;;9.30;99.90;;;;;;4991738;28;20510;-87
2021/12/24 03:32:33;;;;;;;81.90;39.80;;;9.30;99.90;;;;;;4981969;28;20398;-88
2021/12/24 03:34:58;;;;;;;80.65;40.90;;;9.30;99.90;;;;;;4996516;28;20062;-88
2021/12/24 03:37:24;;;;;;;74.80;37.00;;;9.30;99.90;;;;;;4989281;28;20030;-89
2021/12/24 03:39:49;;;;;;;69.60;35.70;;;9.30;99.90;;;;;;4990663;28;20026;-88
2021/12/24 03:42:15;;;;;;;83.55;36.80;;;9.30;99.90;;;;;;4995202;28;20036;-88
2021/12/24 03:44:51;;;;;;;73.32;35.95;;;9.30;99.90;;;;;;4977988;28;20035;-87
2021/12/24 03:47:19;;;;;;;66.20;34.90;;;9.30;99.90;;;;;;4994078;28;20037;-88
2021/12/24 03:54:58;;;;;;;56.60;30.08;;;9.40;99.90;;;;;;4989203;28;20392;-88
2021/12/24 03:57:40;;;;;;;67.97;31.60;;;9.40;99.90;;;;;;4992560;28;20290;-88
2021/12/24 04:00:17;;;;;;;59.80;27.52;;;9.30;99.90;;;;;;4991867;28;20521;-87
2021/12/24 04:02:43;;;;;;;54.95;28.02;;;9.30;99.90;;;;;;4991339;28;20026;-88
2021/12/24 04:05:09;;;;;;;62.15;25.55;;;9.30;99.90;;;;;;4997667;28;20522;-88
2021/12/24 04:07:35;;;;;;;46.25;23.52;;;9.30;99.90;;;;;;4989260;28;20037;-88
2021/12/24 04:10:05;;;;;;;52.55;24.88;;;9.30;99.90;;;;;;4992682;28;20034;-88
2021/12/24 04:12:31;;;;;;;44.58;21.98;;;9.30;99.90;;;;;;4990486;28;20132;-88
2021/12/24 04:14:57;;;;;;;40.78;21.50;;;9.30;99.90;;;;;;4990127;28;20136;-87
2021/12/24 04:17:22;;;;;;;42.70;19.85;;;9.40;99.90;;;;;;4988721;28;20110;-87
2021/12/24 04:25:18;;;;;;;45.25;18.90;;;9.30;99.90;;;;;;4992900;28;20041;-88
2021/12/24 04:27:44;;;;;;;40.20;18.20;;;9.40;99.90;;;;;;4994834;28;20092;-88
2021/12/24 04:30:16;;;;;;;37.55;18.98;;;9.40;99.90;;;;;;4987883;28;20038;-87
2021/12/24 04:51:34;;;;;;;40.58;16.48;;;9.30;99.90;;;;;;4992796;28;20018;-88
2021/12/24 05:04:52;;;;;;;34.55;16.75;;;9.30;99.90;;;;;;4993794;28;20042;-87
2021/12/24 05:07:43;;;;;;;31.20;15.07;;;9.30;99.90;;;;;;4992766;28;20475;-88
2021/12/24 05:10:03;;;;;;;35.33;15.07;;;9.30;99.90;;;;;;4995786;28;20442;-88
2021/12/24 05:12:33;;;;;;;30.80;13.93;;;9.30;99.90;;;;;;4994466;28;20030;-88
2021/12/24 05:15:00;;;;;;;37.83;14.88;;;9.20;99.90;;;;;;4995138;28;20054;-88
2021/12/24 05:17:45;;;;;;;35.25;15.45;;;9.20;99.90;;;;;;4990598;28;20037;-87
2021/12/24 05:22:54;;;;;;;32.40;15.10;;;9.20;99.90;;;;;;4990914;28;20084;-87
2021/12/24 05:25:20;;;;;;;28.80;14.40;;;9.20;99.90;;;;;;4995709;28;20030;-87
2021/12/24 05:27:46;;;;;;;26.95;14.02;;;9.10;99.90;;;;;;4985021;28;20081;-88
2021/12/24 05:30:11;;;;;;;38.40;15.15;;;9.10;99.90;;;;;;4992429;28;20045;-88
2021/12/24 05:32:37;;;;;;;24.45;12.10;;;9.10;99.90;;;;;;4997780;28;20033;-87
2021/12/24 05:35:04;;;;;;;24.95;12.02;;;9.10;99.90;;;;;;4994612;28;20037;-87
2021/12/24 05:37:30;;;;;;;34.50;13.52;;;9.10;99.90;;;;;;4987934;28;20037;-87
2021/12/24 05:39:55;;;;;;;37.85;13.88;;;9.10;99.90;;;;;;5000346;28;20030;-88
2021/12/24 05:42:23;;;;;;;32.83;13.43;;;9.10;99.90;;;;;;4980605;28;20031;-87
2021/12/24 05:44:52;;;;;;;33.60;12.20;;;9.20;99.90;;;;;;4997877;28;20390;-88
2021/12/24 05:47:18;;;;;;;33.90;12.05;;;9.10;99.90;;;;;;4985413;28;20034;-88
2021/12/24 05:49:44;;;;;;;26.40;12.35;;;9.20;99.90;;;;;;4995990;28;20038;-87
2021/12/24 05:52:09;;;;;;;35.10;12.45;;;9.20;99.90;;;;;;4991998;28;20419;-87
2021/12/24 05:54:35;;;;;;;32.88;12.27;;;9.10;99.90;;;;;;4991625;28;20034;-87
2021/12/24 05:57:00;;;;;;;28.27;11.32;;;9.10;99.90;;;;;;5004530;28;20061;-87
2021/12/24 05:59:26;;;;;;;32.88;11.98;;;9.10;99.90;;;;;;4991565;28;20057;-87
2021/12/24 06:01:51;;;;;;;26.63;11.65;;;9.10;99.90;;;;;;4992901;28;20027;-88
2021/12/24 06:04:17;;;;;;;25.00;11.90;;;9.10;99.90;;;;;;4993862;28;20031;-87
2021/12/24 06:06:42;;;;;;;29.92;12.68;;;9.10;99.90;;;;;;4994860;28;20042;-87
2021/12/24 06:09:08;;;;;;;25.45;11.57;;;9.10;99.90;;;;;;4992682;28;20030;-86
2021/12/24 06:11:33;;;;;;;41.33;11.98;;;9.10;99.90;;;;;;4993568;28;20026;-87
2021/12/24 06:14:08;;;;;;;23.65;11.27;;;9.10;99.90;;;;;;4994273;28;20030;-87
2021/12/24 06:16:35;;;;;;;26.55;11.75;;;9.10;99.90;;;;;;4991732;28;20065;-87
2021/12/24 06:19:01;;;;;;;34.35;11.43;;;9.00;99.90;;;;;;4998010;28;20479;-87
2021/12/24 06:21:27;;;;;;;32.30;12.43;;;9.10;99.90;;;;;;4994727;28;20112;-89
2021/12/24 06:23:53;;;;;;;25.00;9.98;;;9.00;99.90;;;;;;4998654;28;20033;-87
2021/12/24 06:26:18;;;;;;;24.55;10.82;;;9.00;99.90;;;;;;5001649;28;20068;-87
2021/12/24 06:28:44;;;;;;;33.15;11.15;;;9.00;99.90;;;;;;5008387;28;20034;-87
2021/12/24 06:31:09;;;;;;;31.50;11.40;;;9.00;99.90;;;;;;4990801;28;20010;-87
2021/12/24 06:33:36;;;;;;;26.90;10.75;;;9.00;99.90;;;;;;4994969;28;20030;-88
2021/12/24 06:36:03;;;;;;;29.95;10.65;;;9.00;99.90;;;;;;4998386;28;20485;-88
2021/12/24 06:38:28;;;;;;;29.65;10.40;;;9.00;99.90;;;;;;4992403;28;20091;-88
2021/12/24 06:40:54;;;;;;;33.90;9.43;;;9.00;99.90;;;;;;4993924;28;20112;-87
2021/12/24 06:43:21;;;;;;;30.77;10.05;;;8.90;99.90;;;;;;4986709;28;20483;-87
2021/12/24 06:45:47;;;;;;;27.05;9.50;;;8.90;99.90;;;;;;4982728;28;20287;-88
2021/12/24 06:48:13;;;;;;;33.40;10.15;;;8.90;99.90;;;;;;4985515;28;20579;-88
2021/12/24 06:50:39;;;;;;;30.27;10.10;;;8.90;99.90;;;;;;4982613;28;20125;-88
2021/12/24 06:53:04;;;;;;;29.90;10.73;;;8.90;99.90;;;;;;4981844;28;20037;-88
2021/12/24 06:55:30;;;;;;;31.45;12.48;;;8.90;99.90;;;;;;4981380;28;20030;-88
2021/12/24 06:57:56;;;;;;;38.08;12.82;;;8.80;99.90;;;;;;4980868;28;20553;-87
2021/12/24 07:00:23;;;;;;;27.95;12.25;;;8.90;99.90;;;;;;4981559;28;20026;-88
2021/12/24 07:02:49;;;;;;;35.45;12.68;;;8.80;99.90;;;;;;4981855;28;20030;-87
2021/12/24 07:05:16;;;;;;;35.95;12.07;;;8.80;99.90;;;;;;4982727;28;20062;-88
2021/12/24 07:07:42;;;;;;;32.58;12.52;;;8.80;99.90;;;;;;4982675;28;20026;-87
2021/12/24 07:10:08;;;;;;;45.17;13.45;;;8.80;99.90;;;;;;4985449;28;20675;-87
2021/12/24 07:12:34;;;;;;;34.67;12.00;;;8.80;99.90;;;;;;4984607;28;20054;-87
2021/12/24 07:14:59;;;;;;;39.42;13.75;;;8.80;99.90;;;;;;5001411;28;20064;-86
2021/12/24 07:17:26;;;;;;;33.55;13.20;;;8.70;99.90;;;;;;4983670;28;20018;-87
2021/12/24 07:19:52;;;;;;;31.67;12.48;;;8.70;99.90;;;;;;4979435;28;20033;-86
2021/12/24 07:22:18;;;;;;;36.55;13.27;;;8.70;99.90;;;;;;4984051;28;20030;-87
2021/12/24 07:24:44;;;;;;;36.30;13.32;;;8.70;99.90;;;;;;4977954;28;20033;-87
2021/12/24 07:27:10;;;;;;;38.30;12.82;;;8.70;99.90;;;;;;4982488;28;20030;-88
2021/12/24 07:29:36;;;;;;;34.58;14.38;;;8.70;99.90;;;;;;4988662;28;20505;-87
2021/12/24 07:32:03;;;;;;;42.40;17.10;;;8.70;99.90;;;;;;4981886;28;20614;-88
2021/12/24 07:34:29;;;;;;;36.47;15.43;;;8.70;99.90;;;;;;4979759;28;20066;-88
2021/12/24 07:36:55;;;;;;;44.08;16.73;;;8.70;99.90;;;;;;4996438;28;20026;-88
2021/12/24 07:39:20;;;;;;;34.88;15.20;;;8.70;99.90;;;;;;4992998;28;20364;-88
2021/12/24 07:41:47;;;;;;;48.33;16.42;;;8.70;99.90;;;;;;4981785;28;20057;-88
2021/12/24 07:44:13;;;;;;;39.08;16.25;;;8.70;99.90;;;;;;4980098;28;20497;-89
2021/12/24 07:46:47;;;;;;;39.42;16.45;;;8.70;99.90;;;;;;4982377;28;20034;-88
2021/12/24 07:49:40;;;;;;;37.28;15.98;;;8.70;99.90;;;;;;4978091;28;20061;-89
2021/12/24 07:52:09;;;;;;;36.50;16.25;;;8.70;99.90;;;;;;4980509;28;20064;-88
2021/12/24 07:54:40;;;;;;;44.03;17.23;;;8.70;99.90;;;;;;4978530;28;20498;-88
2021/12/24 07:57:08;;;;;;;38.63;15.63;;;8.70;99.90;;;;;;4982098;28;20471;-89
2021/12/24 07:59:37;;;;;;;33.70;15.68;;;8.70;99.90;;;;;;4986275;28;20089;-88
2021/12/24 08:02:03;;;;;;;41.72;16.27;;;8.70;99.90;;;;;;4987130;28;20026;-88
2021/12/24 08:04:28;;;;;;;34.58;14.35;;;8.80;99.90;;;;;;4989074;28;20089;-87
2021/12/24 08:06:55;;;;;;;34.10;14.50;;;8.80;99.90;;;;;;4988658;28;20433;-88
2021/12/24 08:09:20;;;;;;;31.33;14.80;;;8.80;99.90;;;;;;4986179;28;20042;-89
2021/12/24 08:11:46;;;;;;;39.25;15.27;;;8.80;99.90;;;;;;4992568;28;20371;-90
2021/12/24 08:14:11;;;;;;;32.72;14.40;;;8.80;99.90;;;;;;4985864;28;20037;-89
2021/12/24 08:16:37;;;;;;;34.30;14.15;;;8.70;99.90;;;;;;4984932;28;20117;-89
2021/12/24 08:19:03;;;;;;;34.55;13.38;;;8.80;99.90;;;;;;4978412;28;20034;-89
2021/12/24 08:21:29;;;;;;;33.72;14.35;;;8.80;99.90;;;;;;4980337;28;20027;-89
2021/12/24 08:23:55;;;;;;;32.47;12.88;;;8.80;99.90;;;;;;4983615;28;20038;-89
2021/12/24 08:26:21;;;;;;;33.30;13.50;;;8.80;99.90;;;;;;4980519;28;20030;-89
2021/12/24 08:28:48;;;;;;;43.47;14.18;;;8.80;99.90;;;;;;4983685;28;20034;-89
2021/12/24 08:31:14;;;;;;;33.78;12.57;;;8.80;99.90;;;;;;4986132;28;20701;-89
2021/12/24 08:33:39;;;;;;;37.13;12.45;;;8.80;99.90;;;;;;4983766;28;20037;-89
2021/12/24 08:36:06;;;;;;;33.88;13.32;;;8.90;99.90;;;;;;4982458;28;20482;-88
2021/12/24 08:38:32;;;;;;;31.20;12.15;;;8.90;99.90;;;;;;4981441;28;20034;-88
2021/12/24 08:40:58;;;;;;;28.13;11.75;;;8.80;99.90;;;;;;4982819;28;20037;-88
2021/12/24 08:43:24;;;;;;;36.70;12.95;;;8.90;99.90;;;;;;4983821;28;20475;-89
2021/12/24 08:45:50;;;;;;;39.30;12.68;;;8.90;99.90;;;;;;4981395;28;20113;-88
2021/12/24 08:48:15;;;;;;;31.25;11.65;;;8.90;99.90;;;;;;4984834;28;20035;-88
2021/12/24 08:50:41;;;;;;;32.17;12.00;;;8.90;99.90;;;;;;4982994;28;20030;-89
2021/12/24 08:53:07;;;;;;;24.67;11.68;;;8.90;99.90;;;;;;4983417;28;20037;-89
2021/12/24 08:55:34;;;;;;;27.70;10.88;;;8.90;99.90;;;;;;4984946;28;20407;-89
2021/12/24 08:58:02;;;;;;;24.13;11.25;;;8.90;99.90;;;;;;4981276;28;20528;-88
2021/12/24 09:00:28;;;;;;;40.33;12.40;;;8.90;99.90;;;;;;4980663;28;20058;-88
2021/12/24 09:02:54;;;;;;;23.52;10.55;;;9.00;99.90;;;;;;4981282;28;20090;-89
2021/12/24 09:05:19;;;;;;;29.95;11.68;;;9.00;99.90;;;;;;4989717;28;20137;-89
2021/12/24 09:07:45;;;;;;;25.13;10.60;;;9.00;99.90;;;;;;4980362;28;20396;-89
2021/12/24 09:10:12;;;;;;;28.20;10.93;;;9.00;99.90;;;;;;4983728;28;20125;-89
2021/12/24 09:12:42;;;;;;;35.03;11.63;;;9.00;99.90;;;;;;4983552;28;20029;-88
2021/12/24 09:15:08;;;;;;;30.90;10.40;;;9.10;99.90;;;;;;4981558;28;20034;-88
2021/12/24 09:17:33;;;;;;;30.48;10.95;;;9.10;99.90;;;;;;4988217;28;20030;-89
2021/12/24 09:19:59;;;;;;;23.38;10.07;;;9.10;99.90;;;;;;4987954;28;20054;-89
2021/12/24 09:22:31;;;;;;;27.63;10.82;;;9.10;99.90;;;;;;4987253;28;20042;-89
2021/12/24 09:24:57;;;;;;;31.30;11.00;;;9.10;99.90;;;;;;4990268;28;20019;-88
2021/12/24 09:27:23;;;;;;;28.88;10.35;;;9.10;99.90;;;;;;4989376;28;20050;-89
2021/12/24 09:29:49;;;;;;;23.55;9.15;;;9.20;99.90;;;;;;4985932;28;20034;-89
2021/12/24 09:32:15;;;;;;;26.63;9.45;;;9.20;99.90;;;;;;4985873;28;20048;-89
2021/12/24 09:34:40;;;;;;;30.02;10.40;;;9.20;99.90;;;;;;4985321;28;20022;-89
2021/12/24 09:37:06;;;;;;;29.45;10.38;;;9.20;99.90;;;;;;4988870;28;20050;-89
2021/12/24 09:39:32;;;;;;;27.30;10.63;;;9.20;99.90;;;;;;4987168;28;20437;-89
2021/12/24 09:41:58;;;;;;;34.45;11.23;;;9.20;99.90;;;;;;4989928;28;20022;-88
2021/12/24 09:44:24;;;;;;;22.42;10.75;;;9.20;99.90;;;;;;4985213;28;20031;-89
2021/12/24 09:46:50;;;;;;;28.90;10.43;;;9.20;99.90;;;;;;4985869;28;20034;-89
2021/12/24 09:49:16;;;;;;;26.42;10.82;;;9.20;99.90;;;;;;4987460;28;20042;-88
2021/12/24 09:51:45;;;;;;;29.17;10.80;;;9.30;99.90;;;;;;4994000;28;20018;-88
2021/12/24 09:54:15;;;;;;;30.92;11.85;;;9.30;99.90;;;;;;5007072;28;20145;-88
2021/12/24 09:56:42;;;;;;;26.77;11.13;;;9.30;99.90;;;;;;4989098;28;20057;-88
2021/12/24 09:59:07;;;;;;;33.83;11.27;;;9.20;99.90;;;;;;4994671;28;20033;-88
2021/12/24 10:01:40;;;;;;;27.75;10.52;;;9.30;99.90;;;;;;4992942;28;20026;-88
2021/12/24 10:04:20;;;;;;;34.13;11.30;;;9.20;99.90;;;;;;4983701;28;20030;-87
2021/12/24 10:06:54;;;;;;;28.90;9.77;;;9.20;99.90;;;;;;4987826;28;20038;-88
2021/12/24 10:09:21;;;;;;;29.40;11.18;;;9.20;99.90;;;;;;4990792;28;20034;-88
2021/12/24 10:11:51;;;;;;;26.90;8.98;;;9.20;99.90;;;;;;4990787;28;20037;-88
2021/12/24 10:14:19;;;;;;;36.45;11.10;;;9.20;99.90;;;;;;4992775;28;20037;-88
2021/12/24 10:16:50;;;;;;;30.58;10.80;;;9.30;99.90;;;;;;5013838;28;20022;-87
2021/12/24 10:19:16;;;;;;;25.83;10.15;;;9.30;99.90;;;;;;4995288;28;20113;-88
2021/12/24 10:21:44;;;;;;;33.97;11.05;;;9.30;99.90;;;;;;4997323;28;20497;-88
2021/12/24 10:24:18;;;;;;;34.47;11.27;;;9.30;99.90;;;;;;4998629;28;20165;-87
2021/12/24 10:26:50;;;;;;;34.42;10.77;;;9.40;99.90;;;;;;4999242;28;20038;-88
2021/12/24 10:29:27;;;;;;;30.70;9.40;;;9.40;99.90;;;;;;5009385;28;20029;-87
2021/12/24 10:31:55;;;;;;;25.17;10.02;;;9.40;99.90;;;;;;4996885;28;20026;-88
2021/12/24 10:34:26;;;;;;;29.80;9.60;;;9.50;99.90;;;;;;4996747;28;20114;-88
2021/12/24 10:37:07;;;;;;;25.23;9.18;;;9.50;99.90;;;;;;4998924;28;20058;-86
2021/12/24 10:39:35;;;;;;;27.52;8.40;;;9.50;99.90;;;;;;4987074;28;20177;-88
2021/12/24 10:42:05;;;;;;;18.27;7.32;;;9.50;99.90;;;;;;4998659;28;20076;-87
2021/12/24 10:44:33;;;;;;;26.50;7.68;;;9.40;99.90;;;;;;4990618;28;20030;-88
2021/12/24 10:47:26;;;;;;;27.42;7.03;;;9.50;99.90;;;;;;4991644;28;20042;-86
2021/12/24 10:55:26;;;;;;;20.85;6.88;;;9.40;99.90;;;;;;4996370;28;20026;-88
2021/12/24 10:57:53;;;;;;;24.95;7.20;;;9.40;99.90;;;;;;4993551;28;20105;-88
2021/12/24 11:00:21;;;;;;;28.70;6.80;;;9.40;99.90;;;;;;4993623;28;20072;-89
2021/12/24 11:03:01;;;;;;;21.83;6.63;;;9.30;99.90;;;;;;4987965;28;20035;-88
2021/12/24 11:05:30;;;;;;;18.27;5.43;;;9.30;99.90;;;;;;4998191;28;20701;-88
2021/12/24 11:07:58;;;;;;;26.75;7.75;;;9.30;99.90;;;;;;4996529;28;20033;-88
2021/12/24 11:10:29;;;;;;;18.60;6.32;;;9.30;99.90;;;;;;5001940;28;20038;-89
2021/12/24 11:12:58;;;;;;;27.08;8.15;;;9.30;99.90;;;;;;4978493;28;20022;-88
2021/12/24 11:15:29;;;;;;;24.10;7.80;;;9.30;99.90;;;;;;4997273;28;20033;-88
2021/12/24 11:18:02;;;;;;;27.75;7.15;;;9.30;99.90;;;;;;5014070;28;20014;-89
2021/12/24 11:20:29;;;;;;;17.73;7.88;;;9.30;99.90;;;;;;4990597;28;20027;-87
2021/12/24 11:23:01;;;;;;;30.05;9.10;;;9.30;99.90;;;;;;4996591;28;20026;-88
2021/12/24 11:25:30;;;;;;;22.33;8.80;;;9.30;99.90;;;;;;4998027;28;20027;-88
2021/12/24 11:27:58;;;;;;;21.58;8.63;;;9.40;99.90;;;;;;4993348;28;20033;-88
2021/12/24 11:30:25;;;;;;;23.73;9.77;;;9.30;99.90;;;;;;4989359;28;20043;-88
2021/12/24 11:32:51;;;;;;;30.15;10.45;;;9.30;99.90;;;;;;4988986;28;20026;-88
2021/12/24 11:35:19;;;;;;;26.98;9.48;;;9.30;99.90;;;;;;4997584;28;20030;-88
2021/12/24 11:37:46;;;;;;;29.35;10.88;;;9.30;99.90;;;;;;4992819;28;20058;-88
2021/12/24 11:40:17;;;;;;;33.20;10.68;;;9.40;99.90;;;;;;4990772;28;20014;-89
2021/12/24 11:42:54;;;;;;;33.78;11.43;;;9.40;99.90;;;;;;4991614;28;20038;-89
2021/12/24 11:45:22;;;;;;;26.92;11.23;;;9.40;99.90;;;;;;4990510;28;20058;-88
2021/12/24 11:47:48;;;;;;;30.02;12.25;;;9.50;99.90;;;;;;4996241;28;20022;-89
2021/12/24 11:50:14;;;;;;;33.58;12.18;;;9.40;99.90;;;;;;4981480;28;20204;-89
2021/12/24 11:52:41;;;;;;;31.30;11.57;;;9.50;99.90;;;;;;4996782;28;20109;-88
2021/12/24 11:55:07;;;;;;;35.50;12.88;;;9.50;99.90;;;;;;4991246;28;20031;-89
2021/12/24 11:57:33;;;;;;;28.48;11.70;;;9.50;99.90;;;;;;4984332;28;20030;-88
2021/12/24 12:00:10;;;;;;;24.27;10.30;;;9.60;99.90;;;;;;4994837;28;20483;-89
2021/12/24 12:02:40;;;;;;;32.03;13.00;;;9.60;99.90;;;;;;4978729;28;20030;-89
2021/12/24 12:05:10;;;;;;;27.40;12.27;;;9.60;99.90;;;;;;4994494;28;20133;-89
2021/12/24 12:07:36;;;;;;;28.85;11.70;;;9.60;99.90;;;;;;4990378;28;20026;-88
2021/12/24 12:10:03;;;;;;;32.55;11.98;;;9.60;99.90;;;;;;4978936;28;20085;-88
2021/12/24 12:12:34;;;;;;;29.48;12.65;;;9.60;99.90;;;;;;4992813;28;20541;-89
2021/12/24 12:15:29;;;;;;;35.72;12.23;;;9.50;99.90;;;;;;4995041;28;20040;-87
2021/12/24 12:17:58;;;;;;;32.88;12.93;;;9.50;99.90;;;;;;4996977;28;20018;-88
2021/12/24 12:20:40;;;;;;;25.23;12.38;;;9.50;99.90;;;;;;4996465;28;20062;-87
2021/12/24 12:23:09;;;;;;;41.20;12.90;;;9.50;99.90;;;;;;5010906;28;20072;-88
2021/12/24 12:25:36;;;;;;;29.35;11.95;;;9.50;99.90;;;;;;4988678;28;20061;-88
2021/12/24 12:28:06;;;;;;;34.13;12.85;;;9.60;99.90;;;;;;4995494;28;20125;-86
2021/12/24 12:30:36;;;;;;;23.58;10.73;;;9.50;99.90;;;;;;4996362;28;20399;-88
2021/12/24 12:33:10;;;;;;;26.30;11.70;;;9.50;99.90;;;;;;5008146;28;20045;-88
2021/12/24 12:35:58;;;;;;;34.60;14.27;;;9.50;99.90;;;;;;5011820;28;20109;-86
2021/12/24 12:38:25;;;;;;;27.70;12.55;;;9.60;99.90;;;;;;4984697;28;20026;-87
2021/12/24 12:40:51;;;;;;;27.55;12.10;;;9.60;99.90;;;;;;4999028;28;20034;-87
2021/12/24 12:43:18;;;;;;;35.30;13.57;;;9.60;99.90;;;;;;5001326;28;20031;-87
2021/12/24 12:45:45;;;;;;;34.50;14.40;;;9.70;99.90;;;;;;4989706;28;20034;-87
2021/12/24 12:48:26;;;;;;;26.95;12.95;;;9.60;99.90;;;;;;4994899;28;20030;-88
2021/12/24 12:50:58;;;;;;;27.13;12.18;;;9.70;99.90;;;;;;4994122;28;20065;-87
2021/12/24 12:53:27;;;;;;;28.38;12.18;;;9.70;99.90;;;;;;4995371;28;20125;-87
2021/12/24 12:56:27;;;;;;;34.70;13.75;;;9.80;99.90;;;;;;4996022;28;20034;-87
2021/12/24 12:59:01;;;;;;;29.50;13.38;;;9.80;99.90;;;;;;4994628;28;20033;-87
2021/12/24 13:01:28;;;;;;;37.25;12.05;;;9.70;99.90;;;;;;4996209;28;20479;-86
2021/12/24 13:04:03;;;;;;;30.15;13.15;;;9.70;99.90;;;;;;4996811;28;20026;-86
2021/12/24 13:06:41;;;;;;;31.48;13.00;;;9.70;99.90;;;;;;4997308;28;20034;-87
2021/12/24 13:09:12;;;;;;;34.65;14.85;;;9.70;99.90;;;;;;4995481;28;20022;-87
2021/12/24 13:11:44;;;;;;;36.67;13.80;;;9.70;99.90;;;;;;4992158;28;20479;-86
2021/12/24 13:14:10;;;;;;;36.87;14.63;;;9.70;99.90;;;;;;4980059;28;20034;-86
2021/12/24 13:16:45;;;;;;;33.95;13.68;;;9.70;99.90;;;;;;4991437;28;20113;-86
2021/12/24 13:24:53;;;;;;;26.50;12.23;;;9.70;99.90;;;;;;4996511;28;20138;-87
2021/12/24 13:27:25;;;;;;;37.83;13.55;;;9.70;99.90;;;;;;4994547;28;20105;-87
2021/12/24 13:30:04;;;;;;;;;;;9.70;99.90;;;;;;4986645;28;20042;-87
2021/12/24 13:32:30;;;;;;;28.48;11.55;;;9.60;99.90;;;;;;4983170;28;19932;-87
2021/12/24 13:34:56;;;;;;;23.75;10.70;;;9.50;99.90;;;;;;4995971;28;20026;-87
2021/12/24 13:37:22;;;;;;;27.20;12.35;;;9.60;99.90;;;;;;4994354;28;20049;-87
2021/12/24 13:39:52;;;;;;;25.40;12.15;;;9.50;99.90;;;;;;4989053;28;20034;-85
2021/12/24 13:42:18;;;;;;;27.73;11.13;;;9.50;99.90;;;;;;4990589;28;20049;-87
2021/12/24 13:44:47;;;;;;;30.95;13.00;;;9.50;99.90;;;;;;5007594;28;20121;-87
2021/12/24 13:47:24;;;;;;;30.23;11.80;;;9.50;99.90;;;;;;4994150;28;20026;-87
2021/12/24 13:55:30;;;;;;;29.10;9.77;;;9.40;99.90;;;;;;5014154;28;20032;-87
2021/12/24 13:58:02;;;;;;;27.83;8.77;;;9.40;99.90;;;;;;5002738;28;20019;-88
2021/12/24 14:00:31;;;;;;;28.70;8.55;;;9.50;99.90;;;;;;4975588;28;20023;-88
2021/12/24 14:03:02;;;;;;;24.52;7.78;;;9.40;99.90;;;;;;4985410;28;20031;-87
2021/12/24 14:05:28;;;;;;;22.73;7.97;;;9.40;99.90;;;;;;4974599;28;20082;-88
2021/12/24 14:08:11;;;;;;;27.48;7.80;;;9.40;99.90;;;;;;4981924;28;20030;-87
2021/12/24 14:10:38;;;;;;;26.63;7.60;;;9.40;99.90;;;;;;4993678;28;20030;-88
2021/12/24 14:13:09;;;;;;;24.52;8.00;;;9.40;99.90;;;;;;4993863;28;20026;-88
2021/12/24 14:15:48;;;;;;;23.33;7.32;;;9.30;99.90;;;;;;4994530;28;20081;-87
2021/12/24 14:18:42;;;;;;;34.25;8.75;;;9.30;99.90;;;;;;4994184;28;20030;-87
2021/12/24 14:24:24;;;;;;;26.90;8.10;;;9.20;99.90;;;;;;4988059;28;20027;-89
2021/12/24 14:27:00;;;;;;;22.50;6.65;;;9.20;99.90;;;;;;4991043;28;20065;-88
2021/12/24 14:29:33;;;;;;;17.58;7.28;;;9.20;99.90;;;;;;4978071;28;20043;-87
2021/12/24 14:32:02;;;;;;;27.13;7.53;;;9.20;99.90;;;;;;4985412;28;20022;-87
2021/12/24 14:34:35;;;;;;;26.23;6.93;;;9.20;99.90;;;;;;4990623;28;20027;-87
2021/12/24 14:37:04;;;;;;;27.88;7.32;;;9.20;99.90;;;;;;4994603;28;20113;-87
2021/12/24 14:39:39;;;;;;;21.13;7.65;;;9.20;99.90;;;;;;4994729;28;20092;-87
2021/12/24 14:42:10;;;;;;;21.67;7.55;;;9.10;99.90;;;;;;4982332;28;20027;-86
2021/12/24 14:44:36;;;;;;;22.92;6.63;;;9.10;99.90;;;;;;4985095;28;20399;-88